Time;durP1;ratioP1;P1;durP2;ratioP2;P2;SDS_P1;SDS_P2;PMS_P1;PMS_P2;Temp;Humidity;BMP_temperature;BMP_pressure;BME280_temperature;BME280_humidity;BME280_pressure;Samples;Min_cycle;Max_cycle;Signal;HPM_P1;HPM_P2
2022/05/22 00:00:36;;;;;;;4.77;0.80;;;;;;;15.06;50.37;99326.38;1724154;81;21201;-69
2022/05/22 00:03:04;;;;;;;2.60;0.90;;;;;;;15.10;50.64;99292.92;1723684;81;21404;-69
2022/05/22 00:05:32;;;;;;;4.10;0.87;;;;;;;15.08;50.32;99308.05;1725008;81;21282;-69
2022/05/22 00:08:01;;;;;;;3.43;0.87;;;;;;;15.07;49.79;99323.95;1725187;81;21177;-69
2022/05/22 00:10:28;;;;;;;5.03;1.10;;;;;;;15.04;49.87;99290.97;1722831;81;21227;-70
2022/05/22 00:12:57;;;;;;;3.90;0.80;;;;;;;15.06;49.50;99290.64;1720958;82;21161;-70
2022/05/22 00:15:24;;;;;;;2.77;1.00;;;;;;;15.02;49.75;99302.59;1733697;82;21593;-69
2022/05/22 00:17:51;;;;;;;3.77;1.00;;;;;;;15.02;49.71;99303.93;1727411;82;21767;-68
2022/05/22 00:20:19;;;;;;;0.83;0.50;;;;;;;15.01;49.91;99312.55;1723942;82;21156;-68
2022/05/22 00:22:49;;;;;;;2.57;0.80;;;;;;;15.00;49.53;99288.66;1750873;81;21324;-69
2022/05/22 00:25:16;;;;;;;3.73;1.00;;;;;;;14.95;49.77;99309.00;1758774;80;21051;-68
2022/05/22 00:27:43;;;;;;;2.90;0.70;;;;;;;14.91;49.60;99309.39;1765997;80;21207;-69
2022/05/22 00:30:12;;;;;;;6.73;1.57;;;;;;;14.88;49.49;99299.27;1766016;80;21157;-69
2022/05/22 00:32:42;;;;;;;2.40;0.70;;;;;;;14.83;49.22;99297.52;1758653;81;21251;-69
2022/05/22 00:35:10;;;;;;;2.87;0.57;;;;;;;14.82;48.86;99293.25;1765872;80;21108;-69
2022/05/22 00:37:38;;;;;;;2.40;0.70;;;;;;;14.81;48.88;99301.09;1765097;80;21880;-69
2022/05/22 00:40:08;;;;;;;2.60;0.60;;;;;;;14.80;49.00;99305.42;1766310;80;21392;-68
2022/05/22 00:42:36;;;;;;;3.20;0.60;;;;;;;14.74;49.14;99294.84;1765283;80;21209;-69
2022/05/22 00:45:06;;;;;;;2.87;0.60;;;;;;;14.70;48.95;99283.11;1763445;79;21467;-69
2022/05/22 00:47:34;;;;;;;4.87;0.60;;;;;;;14.67;49.44;99290.46;1755578;80;21344;-69
2022/05/22 00:50:04;;;;;;;1.20;0.60;;;;;;;14.64;49.38;99292.98;1763773;80;21264;-68
2022/05/22 00:52:42;;;;;;;3.43;0.60;;;;;;;14.60;49.31;99286.67;1764020;80;21511;-68
2022/05/22 00:55:15;;;;;;;5.13;0.80;;;;;;;14.57;49.51;99281.36;1765289;80;21650;-69
2022/05/22 00:57:50;;;;;;;1.33;0.53;;;;;;;14.53;49.61;99288.48;1763625;80;21307;-69
2022/05/22 01:00:21;;;;;;;1.90;0.60;;;;;;;14.46;49.40;99286.78;1761045;80;21254;-69
2022/05/22 01:05:43;;;;;;;2.27;1.00;;;;;;;14.39;50.46;99281.88;1762882;80;21256;-69
2022/05/22 01:08:11;;;;;;;1.90;0.70;;;;;;;14.34;51.02;99271.81;1760365;80;21427;-70
2022/05/22 01:10:42;;;;;;;2.07;0.60;;;;;;;14.30;50.77;99270.31;1765787;80;21336;-69
2022/05/22 01:13:12;;;;;;;3.80;1.03;;;;;;;14.25;50.91;99282.56;1766088;80;21261;-69
2022/05/22 01:15:39;;;;;;;3.77;0.70;;;;;;;14.19;51.59;99283.80;1765963;80;21224;-70
2022/05/22 01:18:07;;;;;;;3.27;0.80;;;;;;;14.16;52.17;99283.87;1748904;80;22137;-68
2022/05/22 01:20:34;;;;;;;4.73;1.27;;;;;;;14.10;51.86;99267.66;1760673;80;21170;-69
2022/05/22 01:23:02;;;;;;;4.63;1.03;;;;;;;14.08;52.37;99275.22;1762383;80;21164;-69
2022/05/22 01:25:29;;;;;;;2.47;0.80;;;;;;;14.03;52.72;99278.06;1750272;80;21210;-69
2022/05/22 01:27:58;;;;;;;2.77;1.00;;;;;;;13.97;53.08;99254.58;1760932;80;21105;-69
2022/05/22 01:30:28;;;;;;;5.03;0.80;;;;;;;13.94;53.10;99267.84;1763951;80;21212;-69
2022/05/22 01:33:05;;;;;;;4.97;1.03;;;;;;;13.89;53.03;99266.66;1759136;80;21364;-69
2022/05/22 01:35:35;;;;;;;3.93;1.00;;;;;;;13.86;52.76;99264.03;1765834;80;21061;-69
2022/05/22 01:38:04;;;;;;;2.30;0.90;;;;;;;13.87;53.03;99276.34;1759715;80;21342;-69
2022/05/22 01:40:33;;;;;;;1.93;0.70;;;;;;;13.89;52.84;99269.34;1763624;80;21801;-68
2022/05/22 01:43:01;;;;;;;2.43;0.63;;;;;;;13.89;52.77;99254.58;1764991;80;21802;-69
2022/05/22 01:45:32;;;;;;;2.53;0.90;;;;;;;13.86;53.06;99251.16;1765228;80;21811;-69
2022/05/22 01:48:01;;;;;;;3.00;0.80;;;;;;;13.82;52.71;99255.81;1763335;80;21144;-69
2022/05/22 01:50:44;;;;;;;1.57;0.70;;;;;;;13.81;53.29;99250.18;1763738;80;21180;-69
2022/05/22 01:53:12;;;;;;;1.63;0.70;;;;;;;13.78;53.07;99249.45;1765870;80;21206;-69
2022/05/22 01:55:39;;;;;;;2.37;0.83;;;;;;;13.76;53.83;99259.73;1761543;79;22026;-69
2022/05/22 01:58:07;;;;;;;1.63;0.70;;;;;;;13.72;54.00;99252.59;1766555;80;21275;-69
2022/05/22 02:00:36;;;;;;;2.47;0.80;;;;;;;13.71;54.06;99242.41;1759109;80;21800;-70
2022/05/22 02:03:05;;;;;;;2.53;0.80;;;;;;;13.66;54.37;99247.92;1765700;80;21659;-70
2022/05/22 02:05:34;;;;;;;1.53;0.80;;;;;;;13.65;54.10;99246.87;1764081;81;21254;-69
2022/05/22 02:11:01;;;;;;;4.30;0.80;;;;;;;13.58;54.09;99248.66;1762693;80;21247;-68
2022/05/22 02:13:38;;;;;;;2.93;0.80;;;;;;;13.55;54.19;99238.55;1764947;80;21744;-68
2022/05/22 02:16:06;;;;;;;3.57;0.93;;;;;;;13.54;54.12;99247.70;1744488;80;21196;-68
2022/05/22 02:18:33;;;;;;;3.20;0.80;;;;;;;13.52;54.34;99240.50;1762754;80;21316;-68
2022/05/22 02:21:00;;;;;;;3.23;0.80;;;;;;;13.49;54.29;99238.44;1760707;80;21332;-68
2022/05/22 02:23:32;;;;;;;2.13;0.83;;;;;;;13.49;54.53;99239.78;1763348;80;21889;-69
2022/05/22 02:25:59;;;;;;;2.43;1.03;;;;;;;13.45;54.73;99240.16;1759629;80;21698;-69
2022/05/22 02:28:31;;;;;;;3.93;0.93;;;;;;;13.45;54.85;99235.58;1764750;80;21739;-69
2022/05/22 02:31:01;;;;;;;5.17;1.07;;;;;;;13.46;54.78;99245.75;1763257;80;21114;-70
2022/05/22 02:33:29;;;;;;;4.90;1.00;;;;;;;13.45;55.01;99221.38;1765116;80;21355;-69
2022/05/22 02:36:00;;;;;;;3.23;1.10;;;;;;;13.44;54.95;99230.54;1766278;80;21518;-69
2022/05/22 02:38:29;;;;;;;3.13;1.20;;;;;;;13.45;54.97;99236.13;1751260;80;21273;-69
2022/05/22 02:40:56;;;;;;;2.83;0.90;;;;;;;13.47;54.98;99221.88;1763166;80;21139;-69
2022/05/22 02:43:23;;;;;;;3.20;1.10;;;;;;;13.48;54.89;99210.83;1766399;80;21111;-70
2022/05/22 02:45:52;;;;;;;3.23;1.17;;;;;;;13.50;54.84;99209.19;1759637;80;21494;-69
2022/05/22 02:48:20;;;;;;;4.50;1.03;;;;;;;13.51;55.13;99208.08;1764873;80;21381;-69
2022/05/22 02:50:57;;;;;;;4.03;0.90;;;;;;;13.54;55.10;99207.47;1760278;80;21077;-69
2022/05/22 02:53:24;;;;;;;4.60;1.10;;;;;;;13.57;55.31;99208.19;1750431;80;21235;-69
2022/05/22 02:56:13;;;;;;;4.67;1.00;;;;;;;13.56;55.46;99203.38;1764409;80;21263;-70
2022/05/22 02:58:44;;;;;;;2.60;0.93;;;;;;;13.61;55.27;99201.10;1759800;79;21627;-69
2022/05/22 03:01:11;;;;;;;3.27;1.27;;;;;;;13.70;55.08;99200.59;1762630;80;21669;-69
2022/05/22 03:03:39;;;;;;;3.43;1.20;;;;;;;13.77;54.94;99194.77;1765737;80;20991;-69
2022/05/22 03:08:52;;;;;;;2.80;1.07;;;;;;;13.92;54.85;99184.95;1753795;80;21263;-69
2022/05/22 03:11:19;;;;;;;3.60;1.10;;;;;;;14.00;54.61;99184.72;1762668;80;21764;-69
2022/05/22 03:13:46;;;;;;;3.00;1.10;;;;;;;14.04;54.48;99175.72;1765965;79;21296;-69
2022/05/22 03:16:13;;;;;;;2.10;1.00;;;;;;;14.15;54.64;99177.57;1766285;80;21223;-69
2022/05/22 03:18:42;;;;;;;3.23;1.00;;;;;;;14.26;54.37;99179.39;1762884;80;21200;-69
2022/05/22 03:21:13;;;;;;;2.90;1.30;;;;;;;14.36;54.07;99169.68;1760423;80;21342;-69
2022/05/22 03:23:41;;;;;;;3.10;1.00;;;;;;;14.45;54.28;99164.31;1765632;80;21179;-69
2022/05/22 03:26:10;;;;;;;2.83;1.10;;;;;;;14.56;54.11;99164.25;1765781;80;21396;-69
2022/05/22 03:28:37;;;;;;;2.90;1.20;;;;;;;14.62;54.02;99154.92;1766186;80;21278;-69
2022/05/22 03:31:04;;;;;;;2.87;1.17;;;;;;;14.67;54.01;99143.21;1731467;81;21302;-69
2022/05/22 03:33:33;;;;;;;4.20;1.13;;;;;;;14.69;54.04;99143.70;1774490;80;21544;-69
2022/05/22 03:36:00;;;;;;;4.57;1.50;;;;;;;14.69;53.95;99139.10;1766006;80;21219;-69
2022/05/22 03:38:27;;;;;;;3.40;1.27;;;;;;;14.62;53.81;99147.42;1751941;81;21252;-70
2022/05/22 03:40:55;;;;;;;3.67;1.40;;;;;;;14.57;54.16;99147.58;1759757;80;21224;-70
2022/05/22 03:43:23;;;;;;;3.90;1.20;;;;;;;14.55;54.26;99138.50;1755665;80;21216;-69
2022/05/22 03:45:50;;;;;;;3.00;1.30;;;;;;;14.56;54.40;99136.59;1765515;80;21357;-69
2022/05/22 03:48:18;;;;;;;4.57;1.30;;;;;;;14.54;54.54;99137.72;1736220;81;21495;-69
2022/05/22 03:50:48;;;;;;;3.37;1.30;;;;;;;14.53;54.66;99123.23;1765518;80;21290;-68
2022/05/22 03:53:17;;;;;;;;;;;;;;;14.52;54.74;99125.14;1708439;82;21738;-69
2022/05/22 03:55:45;;;;;;;3.23;1.40;;;;;;;14.51;54.74;99130.81;1754237;80;20165;-68
2022/05/22 03:58:16;;;;;;;3.93;1.50;;;;;;;14.50;55.14;99129.22;1750292;80;21264;-68
2022/05/22 04:00:45;;;;;;;4.17;1.60;;;;;;;14.52;55.20;99114.95;1721494;81;21394;-71
2022/05/22 04:03:13;;;;;;;2.90;1.40;;;;;;;14.52;55.36;99124.36;1766569;80;21084;-70
2022/05/22 04:05:41;;;;;;;4.77;1.30;;;;;;;14.51;55.52;99133.50;1762863;80;21157;-68
2022/05/22 04:08:09;;;;;;;4.70;1.60;;;;;;;14.53;55.58;99125.92;1762731;80;21282;-69
2022/05/22 04:10:38;;;;;;;4.83;2.17;;;;;;;14.52;55.54;99117.08;1761725;80;21053;-69
2022/05/22 04:13:06;;;;;;;3.43;1.60;;;;;;;14.53;55.33;99116.52;1764367;80;21278;-69
2022/05/22 04:15:34;;;;;;;4.63;1.60;;;;;;;14.56;55.13;99119.13;1766087;80;21731;-69
2022/05/22 04:18:01;;;;;;;5.13;1.73;;;;;;;14.56;55.45;99115.89;1760129;80;21317;-69
2022/05/22 04:20:31;;;;;;;4.10;1.67;;;;;;;14.55;55.44;99104.91;1764712;80;21830;-69
2022/05/22 04:25:55;;;;;;;4.63;1.80;;;;;;;14.52;55.51;99121.67;1764230;80;22192;-69
2022/05/22 04:28:24;;;;;;;3.60;1.50;;;;;;;14.48;55.72;99119.36;1759696;80;21313;-69
2022/05/22 04:30:53;;;;;;;4.17;1.90;;;;;;;14.49;55.70;99113.66;1764748;80;21356;-69
2022/05/22 04:33:20;;;;;;;3.57;1.60;;;;;;;14.51;55.53;99116.04;1749680;80;21493;-70
2022/05/22 04:35:48;;;;;;;4.90;1.50;;;;;;;14.48;55.38;99111.30;1766214;80;21240;-69
2022/05/22 04:38:15;;;;;;;3.47;1.50;;;;;;;14.50;55.45;99117.13;1763983;80;21834;-69
2022/05/22 04:40:42;;;;;;;3.20;1.30;;;;;;;14.51;55.85;99102.61;1766357;79;21330;-69
2022/05/22 04:43:12;;;;;;;4.53;1.63;;;;;;;14.52;55.51;99106.89;1769155;80;21180;-69
2022/05/22 04:45:41;;;;;;;2.73;1.40;;;;;;;14.53;55.39;99109.25;1764888;80;21682;-68
2022/05/22 04:48:23;;;;;;;3.73;1.60;;;;;;;14.55;55.13;99107.60;1768959;80;21343;-70
2022/05/22 04:50:53;;;;;;;3.03;1.33;;;;;;;14.58;55.20;99111.00;1768607;80;21190;-69
2022/05/22 04:53:26;;;;;;;4.57;1.70;;;;;;;14.65;55.20;99101.89;1742156;81;21241;-68
2022/05/22 04:55:55;;;;;;;4.10;1.20;;;;;;;14.65;54.45;99107.83;1747400;80;21305;-69
2022/05/22 04:58:22;;;;;;;3.23;1.60;;;;;;;14.71;54.47;99132.87;1750435;80;21185;-69
2022/05/22 05:00:49;;;;;;;2.97;1.70;;;;;;;14.77;54.04;99107.41;1765189;80;21066;-69
2022/05/22 05:03:17;;;;;;;2.33;1.30;;;;;;;14.91;54.37;99082.23;1759543;80;21888;-68
2022/05/22 05:05:57;;;;;;;3.23;1.50;;;;;;;15.01;53.69;99089.94;1769597;80;21113;-69
2022/05/22 05:08:27;;;;;;;2.58;1.20;;;;;;;15.07;53.25;99089.19;1749235;80;21400;-70
2022/05/22 05:11:04;;;;;;;2.40;1.37;;;;;;;15.11;53.15;99102.24;1764074;80;21094;-70
2022/05/22 05:13:35;;;;;;;3.27;1.40;;;;;;;15.13;53.46;99100.00;1758605;80;21255;-68
2022/05/22 05:16:08;;;;;;;3.43;1.23;;;;;;;15.15;52.89;99088.38;1768578;80;21365;-68
2022/05/22 05:18:38;;;;;;;2.73;1.30;;;;;;;15.14;53.25;99101.59;1759783;80;21350;-68
2022/05/22 05:21:10;;;;;;;4.53;1.30;;;;;;;15.18;53.08;99087.17;1764940;80;21381;-69
2022/05/22 05:23:38;;;;;;;3.97;1.30;;;;;;;15.29;53.34;99105.08;1763499;80;21277;-70
2022/05/22 05:26:06;;;;;;;3.23;1.13;;;;;;;15.43;53.62;99117.77;1764872;80;21053;-70
2022/05/22 05:28:34;;;;;;;3.10;1.30;;;;;;;15.51;52.14;99082.50;1763550;80;21290;-73
2022/05/22 05:31:03;;;;;;;3.80;1.20;;;;;;;15.50;51.33;99098.42;1767007;80;21379;-69
2022/05/22 05:33:34;;;;;;;3.70;1.20;;;;;;;15.45;51.42;99096.69;1766218;80;21852;-68
2022/05/22 05:36:19;;;;;;;3.67;1.20;;;;;;;15.46;51.51;99098.81;1765419;80;21442;-69
2022/05/22 05:38:58;;;;;;;3.23;1.30;;;;;;;15.44;51.01;99086.27;1757343;80;21434;-68
2022/05/22 05:41:27;;;;;;;3.57;1.40;;;;;;;15.47;51.06;99102.55;1745967;80;21322;-69
2022/05/22 05:43:55;;;;;;;3.10;1.20;;;;;;;15.49;51.04;99077.98;1765979;80;21349;-69
2022/05/22 05:46:21;;;;;;;3.77;1.10;;;;;;;15.53;51.06;99091.58;1766807;80;21370;-69
2022/05/22 05:48:49;;;;;;;3.07;1.30;;;;;;;15.53;51.06;99091.58;1759586;80;21364;-69
2022/05/22 05:51:17;;;;;;;3.37;1.10;;;;;;;15.47;51.09;99093.13;1763234;80;21569;-70
2022/05/22 05:53:46;;;;;;;3.53;1.50;;;;;;;15.36;51.32;99103.22;1759725;80;21375;-69
2022/05/22 05:56:15;;;;;;;2.83;1.10;;;;;;;15.36;51.32;99103.22;1766445;80;21433;-70
2022/05/22 05:58:46;;;;;;;2.33;1.10;;;;;;;15.32;51.81;99091.54;1763727;80;21399;-70
2022/05/22 06:01:16;;;;;;;3.80;1.40;;;;;;;15.30;51.71;99093.22;1766478;80;21409;-70
2022/05/22 06:03:44;;;;;;;1.90;1.10;;;;;;;15.29;51.71;99098.91;1762077;80;21498;-70
2022/05/22 06:06:13;;;;;;;3.00;1.30;;;;;;;15.29;51.71;99098.91;1762935;80;21976;-69
2022/05/22 06:08:40;;;;;;;2.07;1.23;;;;;;;15.37;51.69;99087.34;1763513;80;21823;-69
2022/05/22 06:11:26;;;;;;;3.57;1.20;;;;;;;15.63;51.17;99082.59;1766406;80;21531;-68
2022/05/22 06:13:56;;;;;;;6.13;1.83;;;;;;;15.63;51.17;99082.59;1765159;80;21998;-69
2022/05/22 06:16:24;;;;;;;2.33;1.00;;;;;;;15.72;50.66;99082.55;1765634;80;21385;-69
2022/05/22 06:18:53;;;;;;;3.03;1.20;;;;;;;15.72;50.66;99082.55;1749146;80;22126;-70
2022/05/22 06:21:21;;;;;;;2.73;1.10;;;;;;;15.69;50.45;99092.63;1757986;80;21758;-68
2022/05/22 06:23:48;;;;;;;2.37;1.20;;;;;;;15.62;51.33;99082.34;1754394;80;21407;-70
2022/05/22 06:26:17;;;;;;;2.80;1.00;;;;;;;15.58;51.55;99074.70;1761536;80;21912;-68
2022/05/22 06:28:46;;;;;;;2.77;1.30;;;;;;;15.51;51.94;99087.88;1758687;80;21456;-69
2022/05/22 06:31:33;;;;;;;1.60;0.90;;;;;;;15.39;52.31;99058.19;1787220;79;22099;-68
2022/05/22 06:34:00;;;;;;;1.90;1.07;;;;;;;15.21;52.50;99090.56;1749826;80;21351;-69
2022/05/22 06:36:46;;;;;;;2.07;1.30;;;;;;;15.06;52.08;99124.70;1762975;79;21363;-69
2022/05/22 06:42:28;;;;;;;2.20;1.00;;;;;;;15.00;52.85;99079.74;1760844;80;21320;-69
2022/05/22 06:45:22;;;;;;;2.77;1.20;;;;;;;14.92;53.40;99083.80;1700393;82;21836;-69
2022/05/22 06:48:05;;;;;;;2.67;1.03;;;;;;;14.90;53.46;99087.34;1663196;84;21955;-69
2022/05/22 06:50:33;;;;;;;2.87;1.20;;;;;;;14.91;53.77;99105.08;1695677;83;21482;-69
2022/05/22 06:53:02;;;;;;;2.57;1.50;;;;;;;14.94;53.32;99093.69;1712989;81;21381;-69
2022/05/22 06:55:31;;;;;;;2.67;1.10;;;;;;;15.06;53.80;99085.71;1716107;81;21410;-69
2022/05/22 06:58:00;;;;;;;2.23;1.03;;;;;;;15.12;53.05;99084.42;1653029;83;21313;-70
2022/05/22 07:00:30;;;;;;;4.53;1.40;;;;;;;15.19;53.25;99081.23;1718643;81;21286;-70
2022/05/22 07:03:15;;;;;;;2.67;1.00;;;;;;;15.20;53.25;99086.30;1722854;81;21380;-69
2022/05/22 07:05:44;;;;;;;2.90;1.00;;;;;;;15.16;53.16;99084.56;1730458;80;21365;-70
2022/05/22 07:08:31;;;;;;;2.17;0.97;;;;;;;15.16;53.28;99099.36;1705379;81;21382;-68
2022/05/22 07:13:49;;;;;;;5.07;1.03;;;;;;;15.19;53.62;99089.30;1725999;81;21362;-69
2022/05/22 07:16:20;;;;;;;2.58;1.10;;;;;;;15.18;53.43;99067.00;1720513;81;21632;-69
2022/05/22 07:18:49;;;;;;;2.83;1.10;;;;;;;15.18;53.68;99084.48;1722994;80;21066;-69
2022/05/22 07:21:18;;;;;;;3.50;1.23;;;;;;;15.14;54.27;99078.73;1724303;81;21404;-69
2022/05/22 07:23:47;;;;;;;3.60;1.10;;;;;;;15.14;54.27;99078.73;1718356;81;21676;-69
2022/05/22 07:26:26;;;;;;;4.67;1.07;;;;;;;15.15;53.70;99095.88;1667666;84;21313;-70
2022/05/22 07:29:01;;;;;;;1.77;1.00;;;;;;;15.15;53.71;99093.20;1712754;81;21245;-70
2022/05/22 07:31:47;;;;;;;3.17;0.90;;;;;;;15.18;53.65;99080.45;1719353;81;22013;-69
2022/05/22 07:34:32;;;;;;;2.23;1.00;;;;;;;15.26;53.75;99080.16;1731118;82;21481;-69
2022/05/22 07:37:08;;;;;;;2.33;1.00;;;;;;;15.37;52.91;99080.61;1723220;82;21355;-69
2022/05/22 07:39:40;;;;;;;1.73;0.90;;;;;;;15.49;52.89;99083.38;1733414;81;21407;-70
2022/05/22 07:42:08;;;;;;;2.87;0.97;;;;;;;15.63;52.44;99079.09;1742505;82;21412;-69
2022/05/22 07:44:51;;;;;;;2.43;1.00;;;;;;;15.67;52.10;99076.81;1765682;80;21362;-68
2022/05/22 07:47:22;;;;;;;3.95;1.00;;;;;;;15.65;51.82;99077.66;1763813;80;21361;-68
2022/05/22 07:52:59;;;;;;;5.17;1.23;;;;;;;15.52;51.89;99067.92;1754276;80;20995;-68
2022/05/22 07:55:33;;;;;;;2.10;1.10;;;;;;;15.43;51.68;99092.73;1755492;80;21285;-68
2022/05/22 07:58:22;;;;;;;3.63;1.17;;;;;;;15.37;51.86;99090.81;1766963;80;21449;-68
2022/05/22 08:00:54;;;;;;;2.60;1.13;;;;;;;15.30;51.92;99108.02;1761530;80;21810;-68
2022/05/22 08:03:32;;;;;;;3.80;1.20;;;;;;;15.26;52.29;99086.89;1713193;81;21682;-69
2022/05/22 08:06:01;;;;;;;1.97;1.13;;;;;;;15.21;52.42;99084.40;1763050;80;21332;-69
2022/05/22 08:08:31;;;;;;;1.87;1.20;;;;;;;15.18;52.60;99084.48;1720337;82;21407;-68
2022/05/22 08:11:05;;;;;;;2.67;0.90;;;;;;;15.10;53.16;99075.88;1751891;80;21203;-69
2022/05/22 08:13:35;;;;;;;2.07;1.20;;;;;;;15.07;53.90;99083.27;1766075;80;21374;-69
2022/05/22 08:16:02;;;;;;;1.87;0.90;;;;;;;15.07;53.90;99083.27;1766096;80;21292;-68
2022/05/22 08:18:30;;;;;;;2.00;1.00;;;;;;;15.04;53.85;99089.30;1764192;80;21203;-69
2022/05/22 08:20:59;;;;;;;2.90;1.03;;;;;;;15.05;54.18;99088.73;1752205;80;22477;-69
2022/05/22 08:23:27;;;;;;;2.47;0.93;;;;;;;15.04;54.18;99101.92;1764413;80;21387;-69
2022/05/22 08:25:56;;;;;;;3.33;1.00;;;;;;;15.09;54.15;99082.38;1760054;80;21230;-69
2022/05/22 08:28:24;;;;;;;1.53;0.80;;;;;;;15.22;53.57;99100.20;1766790;80;21380;-69
2022/05/22 08:30:51;;;;;;;1.40;0.80;;;;;;;15.31;53.13;99084.03;1762095;80;21879;-69
2022/05/22 08:33:21;;;;;;;1.30;0.80;;;;;;;15.37;53.17;99065.81;1765360;79;21472;-69
2022/05/22 08:35:49;;;;;;;1.53;0.80;;;;;;;15.43;52.82;99092.73;1762292;81;21464;-69
2022/05/22 08:38:16;;;;;;;2.20;0.80;;;;;;;15.41;52.78;99122.67;1757286;80;21969;-68
2022/05/22 08:40:51;;;;;;;4.00;0.80;;;;;;;15.52;52.67;99084.63;1760656;80;21541;-69
2022/05/22 08:43:38;;;;;;;2.03;0.80;;;;;;;15.52;52.67;99084.63;1759574;80;21558;-69
2022/05/22 08:46:12;;;;;;;1.53;0.87;;;;;;;15.52;51.65;99110.98;1765863;80;21419;-69
2022/05/22 08:48:51;;;;;;;2.60;0.90;;;;;;;15.54;52.79;99085.10;1756518;81;21331;-70
2022/05/22 08:51:23;;;;;;;1.30;0.90;;;;;;;15.54;52.79;99085.10;1749889;81;21395;-69
2022/05/22 08:53:53;;;;;;;2.00;0.90;;;;;;;15.57;53.37;99101.39;1764328;80;21591;-69
2022/05/22 08:59:32;;;;;;;2.60;1.40;;;;;;;15.67;53.57;99080.84;1765674;80;22003;-68
2022/05/22 09:02:27;;;;;;;2.87;1.10;;;;;;;15.69;53.73;99101.51;1763403;80;22106;-70
2022/05/22 09:05:05;;;;;;;2.60;1.00;;;;;;;15.62;54.01;99095.80;1762480;80;22044;-68
2022/05/22 09:07:54;;;;;;;1.50;0.90;;;;;;;15.44;54.32;99086.27;1764391;80;21371;-70
2022/05/22 09:10:38;;;;;;;1.20;0.70;;;;;;;15.46;54.64;99096.94;1758430;80;21524;-69
2022/05/22 09:13:26;;;;;;;1.97;1.00;;;;;;;15.62;52.46;99096.36;1751047;80;21677;-70
2022/05/22 09:16:08;;;;;;;1.83;0.80;;;;;;;15.70;52.91;99109.80;1765902;80;21965;-69
2022/05/22 09:18:58;;;;;;;2.40;0.70;;;;;;;15.70;52.91;99109.80;1757845;80;21546;-70
2022/05/22 09:21:43;;;;;;;2.00;0.90;;;;;;;15.82;52.45;99082.72;1766222;79;21517;-70
2022/05/22 09:24:27;;;;;;;2.60;0.90;;;;;;;15.90;52.49;99109.59;1760931;81;21672;-69
2022/05/22 09:27:10;;;;;;;2.13;1.03;;;;;;;16.10;52.63;99096.47;1764538;80;21661;-70
2022/05/22 09:30:01;;;;;;;1.30;0.93;;;;;;;16.10;52.63;99096.47;1767603;80;22183;-69
2022/05/22 09:32:42;;;;;;;3.43;0.90;;;;;;;16.01;51.75;99096.52;1742448;80;20962;-70
2022/05/22 09:35:36;;;;;;;3.45;1.00;;;;;;;15.97;51.52;99109.64;1761567;80;21661;-70
2022/05/22 09:38:11;;;;;;;2.50;0.70;;;;;;;15.93;51.86;99090.09;1761851;80;21454;-71
2022/05/22 09:40:46;;;;;;;3.77;0.90;;;;;;;16.02;52.03;99089.23;1760903;80;22234;-69
2022/05/22 09:43:54;;;;;;;1.87;0.80;;;;;;;15.87;52.34;99103.52;1764989;80;21693;-69
2022/05/22 09:47:01;;;;;;;0.73;0.60;;;;;;;15.87;52.34;99103.52;1754191;81;21650;-69
2022/05/22 09:49:54;;;;;;;1.43;0.70;;;;;;;15.64;52.61;99103.00;1763652;80;21788;-71
2022/05/22 09:52:48;;;;;;;2.93;0.70;;;;;;;15.29;53.89;99108.33;1715973;80;22085;-70
2022/05/22 09:55:45;;;;;;;2.53;0.70;;;;;;;15.29;53.89;99108.33;1749387;80;21488;-69
2022/05/22 09:58:59;;;;;;;1.60;0.50;;;;;;;15.14;54.76;99112.36;1765395;80;21415;-71
2022/05/22 10:01:35;;;;;;;3.13;0.73;;;;;;;14.74;56.06;99127.39;1756299;80;21423;-68
2022/05/22 10:04:24;;;;;;;1.77;0.80;;;;;;;14.74;56.06;99127.39;1751468;80;21341;-69
2022/05/22 10:07:21;;;;;;;1.03;0.60;;;;;;;14.60;56.71;99142.35;1701945;83;21780;-70
2022/05/22 10:10:21;;;;;;;6.17;1.03;;;;;;;14.44;58.33;99151.97;1725278;82;21417;-69
2022/05/22 10:12:53;;;;;;;1.00;0.73;;;;;;;14.38;58.71;99142.48;1723691;82;21276;-69
2022/05/22 10:15:48;;;;;;;1.43;0.73;;;;;;;14.41;59.25;99162.00;1762768;80;21735;-69
2022/05/22 10:18:31;;;;;;;2.30;0.73;;;;;;;14.41;59.46;99145.89;1762343;80;22151;-69
2022/05/22 10:21:06;;;;;;;3.17;1.22;;;;;;;14.38;60.14;99165.32;1727241;82;21285;-69
2022/05/22 10:24:03;;;;;;;1.57;0.93;;;;;;;14.33;61.21;99161.47;1720722;82;21468;-69
2022/05/22 10:26:54;;;;;;;2.33;0.90;;;;;;;14.18;62.19;99157.33;1725684;82;21217;-70
2022/05/22 10:29:30;;;;;;;1.43;0.80;;;;;;;13.97;63.07;99163.87;1736478;82;21343;-69
2022/05/22 10:32:04;;;;;;;1.70;0.90;;;;;;;13.86;63.56;99187.54;1760756;80;21790;-71
2022/05/22 10:34:45;;;;;;;2.00;0.90;;;;;;;13.79;64.68;99167.87;1763784;80;21221;-68
2022/05/22 10:37:49;;;;;;;1.67;0.90;;;;;;;13.72;65.01;99174.25;1764458;80;21226;-69
2022/05/22 10:40:20;;;;;;;2.07;0.80;;;;;;;13.58;66.02;99158.80;1752457;80;21244;-70
2022/05/22 10:42:51;;;;;;;2.77;0.73;;;;;;;13.36;66.62;99167.17;1766097;80;21181;-69
2022/05/22 10:45:37;;;;;;;2.12;0.85;;;;;;;13.22;66.89;99169.10;1766395;80;21720;-69
2022/05/22 10:48:21;;;;;;;2.10;0.93;;;;;;;13.15;67.40;99174.12;1758469;80;21486;-70
2022/05/22 10:50:58;;;;;;;1.67;0.83;;;;;;;13.15;67.67;99175.46;1767408;80;21180;-69
2022/05/22 10:53:36;;;;;;;1.67;0.93;;;;;;;13.23;68.17;99176.63;1763581;80;21093;-70
2022/05/22 10:56:17;;;;;;;0.83;0.70;;;;;;;13.29;67.90;99184.78;1764023;80;21284;-69
2022/05/22 10:59:06;;;;;;;1.40;0.80;;;;;;;13.40;67.89;99170.02;1763879;80;21362;-70
2022/05/22 11:01:36;;;;;;;0.90;0.83;;;;;;;13.46;68.17;99187.56;1756734;80;21320;-70
2022/05/22 11:04:16;;;;;;;1.83;0.90;;;;;;;13.47;68.11;99187.01;1763278;80;21109;-71
2022/05/22 11:06:59;;;;;;;2.33;1.00;;;;;;;13.47;68.36;99173.59;1764080;80;21164;-70
2022/05/22 11:09:46;;;;;;;3.07;0.90;;;;;;;13.48;68.48;99179.98;1757517;80;21307;-70
2022/05/22 11:12:24;;;;;;;2.37;0.90;;;;;;;13.51;68.71;99194.67;1758206;80;22080;-70
2022/05/22 11:14:50;;;;;;;1.10;0.80;;;;;;;13.51;68.52;99187.97;1764974;80;21074;-69
2022/05/22 11:17:20;;;;;;;1.57;0.93;;;;;;;13.52;68.78;99192.22;1758349;80;21448;-71
2022/05/22 11:19:55;;;;;;;2.50;1.00;;;;;;;13.55;69.01;99196.97;1765437;80;21306;-70
2022/05/22 11:22:42;;;;;;;2.43;1.10;;;;;;;13.55;68.70;99200.99;1765669;80;21797;-70
2022/05/22 11:25:28;;;;;;;3.33;1.13;;;;;;;13.55;69.07;99198.31;1751847;80;22068;-69
2022/05/22 11:28:10;;;;;;;1.70;0.93;;;;;;;13.50;70.06;99201.93;1750101;80;21026;-69
2022/05/22 11:30:57;;;;;;;2.00;1.10;;;;;;;13.44;70.59;99198.35;1766681;80;21285;-69
2022/05/22 11:33:45;;;;;;;1.50;1.00;;;;;;;13.37;71.27;99209.52;1766922;80;21022;-69
2022/05/22 11:36:45;;;;;;;1.77;0.97;;;;;;;13.26;71.82;99203.64;1768322;80;21339;-70
2022/05/22 11:39:32;;;;;;;1.60;1.00;;;;;;;13.13;72.19;99201.25;1727996;81;21253;-70
2022/05/22 11:42:11;;;;;;;1.70;1.10;;;;;;;13.00;72.78;99201.33;1719183;83;21134;-70
2022/05/22 11:45:09;;;;;;;1.93;1.00;;;;;;;12.94;73.21;99210.59;1720785;82;21256;-69
2022/05/22 11:47:56;;;;;;;1.73;0.90;;;;;;;12.88;73.18;99200.53;1738811;81;21172;-71
2022/05/22 11:50:44;;;;;;;1.07;0.80;;;;;;;12.90;73.11;99205.05;1747097;81;21257;-69
2022/05/22 11:53:31;;;;;;;1.53;0.90;;;;;;;12.95;72.93;99209.48;1763614;80;21264;-68
2022/05/22 11:56:04;;;;;;;0.83;0.77;;;;;;;13.01;72.29;99206.38;1763248;80;21210;-70
2022/05/22 11:58:56;;;;;;;1.77;1.00;;;;;;;13.08;72.11;99212.64;1764604;80;21843;-70
2022/05/22 12:01:48;;;;;;;1.87;1.00;;;;;;;13.14;71.93;99205.50;1751850;80;21315;-68
2022/05/22 12:04:48;;;;;;;1.32;0.80;;;;;;;13.18;71.82;99209.70;1765724;80;24646;-69
2022/05/22 12:07:59;;;;;;;1.77;1.10;;;;;;;13.17;71.48;99204.11;1760741;80;21112;-68
2022/05/22 12:10:34;;;;;;;2.00;1.17;;;;;;;13.18;71.92;99208.91;1764877;80;21210;-70
2022/05/22 12:13:14;;;;;;;2.27;1.10;;;;;;;13.22;72.48;99209.32;1750422;80;21362;-69
2022/05/22 12:16:04;;;;;;;1.00;0.80;;;;;;;13.24;72.69;99229.14;1764491;80;21237;-69
2022/05/22 12:18:54;;;;;;;1.90;0.90;;;;;;;13.18;72.24;99208.36;1764086;80;21342;-69
2022/05/22 12:21:35;;;;;;;1.17;0.80;;;;;;;13.10;71.78;99212.58;1754811;80;21478;-70
2022/05/22 12:24:22;;;;;;;1.70;0.80;;;;;;;13.07;72.21;99215.87;1759742;80;20907;-69
2022/05/22 12:26:50;;;;;;;1.47;0.93;;;;;;;13.04;72.58;99213.80;1765298;80;21375;-70
2022/05/22 12:29:27;;;;;;;3.50;1.00;;;;;;;13.06;73.33;99210.80;1756254;80;21355;-70
2022/05/22 12:32:01;;;;;;;1.70;0.90;;;;;;;13.05;73.34;99215.93;1765054;80;21679;-71